»·PEaware :: N2442P KSGU-61B

N2442P :: KSGU-61B

FLIGHT INFORMATION

Flight Status: Arrived
Operator: Privately registered:
United States
More flights under this callsign
Pilot: Ken Q. (14290)
Aircraft: MOONEY M-20K/M ENCORE BRAVO
(M20T)
More flights by this aircraft type
Origin: KSGU St George Mun
United States
Destination: 61B Boulder City Mun
United States
More flights between these airports :: More routes between these airports
Route: KSGU MMM BLD 61B
File this flight plan on PilotEdge
Remarks:
Altitude:
(Current/Filed)
12,500ft
Speed:
(Current/Filed)
175kts
Departed: 13-Nov-18 02:52 PM
Arrived: 13-Nov-18 03:41 PM
Distance/Time
Traveled:
92nm/0:49
Distance/Time
To Go:
Arrived

Flight Plot

Page will automatically refresh every two minutes.

Flight plan parsing failed; only flown route is shown


Map Options




Map Legend


Flown Route
Filed Route
Departure Airport
Arrival Airport
Navaid (VOR, NDB)
Fix

Horizontal Profiles

Position Reports

Time Latitude Longitude Heading Altitude Ground
Speed
13-Nov-18 14:33 37.038758 -113.505608 113 2843ft 0kts
13-Nov-18 14:34 37.038758 -113.505608 113 2843ft 0kts
13-Nov-18 14:35 37.038758 -113.505608 113 2843ft 0kts
13-Nov-18 14:36 37.038758 -113.505608 113 2843ft 0kts
13-Nov-18 14:37 37.038758 -113.505608 113 2843ft 0kts
13-Nov-18 14:38 37.038758 -113.505608 113 2843ft 0kts
13-Nov-18 14:39 37.038758 -113.505608 113 2843ft 0kts
13-Nov-18 14:40 37.038758 -113.505608 113 2843ft 0kts
13-Nov-18 14:41 37.038758 -113.505608 113 2843ft 0kts
13-Nov-18 14:42 37.038758 -113.505608 113 2843ft 0kts
13-Nov-18 14:43 37.038758 -113.505608 113 2843ft 0kts
13-Nov-18 14:44 37.038758 -113.505608 113 2843ft 0kts
13-Nov-18 14:45 37.038758 -113.505608 113 2843ft 0kts
13-Nov-18 14:46 37.038758 -113.505607 113 2843ft 0kts
13-Nov-18 14:47 37.038758 -113.505607 113 2843ft 0kts
13-Nov-18 14:48 37.038758 -113.505607 113 2843ft 0kts
13-Nov-18 14:49 37.039225 -113.505603 19 2843ft 8kts
13-Nov-18 14:50 37.040691 -113.505847 22 2843ft 16kts
13-Nov-18 14:51 37.044964 -113.503570 22 2843ft 13kts
13-Nov-18 14:52 37.047592 -113.502898 292 2843ft 8kts
13-Nov-18 14:53 37.047703 -113.503212 293 2843ft 0kts
13-Nov-18 14:54 37.047705 -113.503218 292 2843ft 0kts
13-Nov-18 14:55 37.045263 -113.505664 203 2843ft 63kts
13-Nov-18 14:56 37.020576 -113.522325 236 3426ft 122kts
13-Nov-18 14:57 37.010282 -113.567243 255 4119ft 140kts
13-Nov-18 14:58 37.000287 -113.614474 255 4771ft 140kts
13-Nov-18 14:59 36.990000 -113.661702 254 5424ft 143kts
13-Nov-18 15:00 36.978876 -113.710643 255 6085ft 148kts
13-Nov-18 15:01 36.967373 -113.761012 255 6746ft 152kts
13-Nov-18 15:02 36.949264 -113.809366 242 7397ft 155kts
13-Nov-18 15:03 36.928700 -113.856681 242 8045ft 153kts
13-Nov-18 15:04 36.907248 -113.903027 240 8696ft 154kts
13-Nov-18 15:05 36.885424 -113.949332 240 9348ft 155kts
13-Nov-18 15:06 36.863140 -113.996074 240 10001ft 158kts
13-Nov-18 15:07 36.841591 -114.044497 245 10650ft 160kts
13-Nov-18 15:08 36.822290 -114.095016 250 11303ft 161kts
13-Nov-18 15:09 36.805549 -114.147073 251 11954ft 162kts
13-Nov-18 15:10 36.788324 -114.199749 251 12480ft 171kts
13-Nov-18 15:11 36.769033 -114.259482 251 12483ft 195kts
13-Nov-18 15:12 36.735057 -114.311701 212 12473ft 205kts
13-Nov-18 15:13 36.686640 -114.349791 212 12469ft 206kts
13-Nov-18 15:14 36.637893 -114.387563 211 12467ft 206kts
13-Nov-18 15:15 36.588712 -114.424708 211 12462ft 206kts
13-Nov-18 15:16 36.539601 -114.461765 211 12462ft 206kts
13-Nov-18 15:17 36.492361 -114.497411 211 12150ft 189kts
13-Nov-18 15:18 36.448848 -114.530411 211 11636ft 175kts
13-Nov-18 15:19 36.412051 -114.558476 211 11031ft 144kts
13-Nov-18 15:20 36.378393 -114.584268 211 10426ft 139kts
13-Nov-18 15:21 36.351295 -114.605116 211 9922ft 135kts
13-Nov-18 15:22 36.314622 -114.633417 211 9221ft 131kts
13-Nov-18 15:23 36.284114 -114.657010 211 8619ft 127kts
13-Nov-18 15:24 36.259186 -114.676215 211 8118ft 125kts
13-Nov-18 15:25 36.227774 -114.693695 199 7517ft 122kts
13-Nov-18 15:26 36.195928 -114.708212 199 6922ft 121kts
13-Nov-18 15:27 36.164002 -114.722610 199 6332ft 122kts
13-Nov-18 15:28 36.137406 -114.743228 260 5883ft 110kts
13-Nov-18 15:29 36.139174 -114.779414 291 5472ft 99kts
13-Nov-18 15:30 36.145786 -114.815425 274 4882ft 114kts
13-Nov-18 15:31 36.137943 -114.849491 187 4494ft 102kts
13-Nov-18 15:32 36.113062 -114.840449 143 4533ft 111kts
13-Nov-18 15:33 36.083016 -114.813282 142 4510ft 151kts
13-Nov-18 15:34 36.045000 -114.786424 160 4528ft 159kts
13-Nov-18 15:35 36.006997 -114.764943 132 5001ft 155kts
13-Nov-18 15:36 35.974583 -114.742692 217 5010ft 163kts
13-Nov-18 15:37 35.966744 -114.796726 277 4850ft 172kts
13-Nov-18 15:38 35.974787 -114.852247 286 4272ft 146kts
13-Nov-18 15:39 35.958383 -114.889069 205 3591ft 125kts
13-Nov-18 15:40 35.925703 -114.882358 162 3181ft 106kts
13-Nov-18 15:41 35.907593 -114.865566 74 3077ft 79kts
13-Nov-18 15:42 35.923303 -114.853619 345 2831ft 90kts
13-Nov-18 15:43 35.944806 -114.860590 348 2164ft 65kts
13-Nov-18 15:44 35.948379 -114.861030 92 2158ft 12kts
13-Nov-18 15:45 35.947857 -114.856853 101 2158ft 7kts
13-Nov-18 15:46 35.948283 -114.855618 7 2158ft 0kts
13-Nov-18 15:47 35.948283 -114.855618 7 2158ft 0kts
13-Nov-18 15:48 35.948283 -114.855618 7 2158ft 0kts

Navigation Log

Ident Type
Flight plan parsing failed, navigation log unavailable